Time;durP1;ratioP1;P1;durP2;ratioP2;P2;SDS_P1;SDS_P2;PMS_P1;PMS_P2;Temp;Humidity;BMP_temperature;BMP_pressure;BME280_temperature;BME280_humidity;BME280_pressure;Samples;Min_cycle;Max_cycle;Signal;HPM_P1;HPM_P2
2021/07/07 00:01:12;;;;;;;7.60;4.55;;;;;;;;;;4403786;32;20598;-55
2021/07/07 00:03:38;;;;;;;6.28;5.68;;;;;;;;;;4403000;32;20738;-54
2021/07/07 00:06:03;;;;;;;5.50;4.93;;;;;;;;;;4403500;32;20521;-55
2021/07/07 00:08:29;;;;;;;6.20;5.47;;;;;;;;;;4402933;32;20300;-55
2021/07/07 00:10:54;;;;;;;7.18;4.87;;;;;;;;;;4403640;32;20260;-56
2021/07/07 00:13:20;;;;;;;5.30;4.07;;;;;;;;;;4403108;32;20217;-55
2021/07/07 00:15:46;;;;;;;6.65;4.93;;;;;;;;;;4402437;32;20359;-55
2021/07/07 00:18:14;;;;;;;5.60;5.00;;;;;;;;;;4403084;32;20256;-55
2021/07/07 00:23:06;;;;;;;7.00;5.20;;;;;;;;;;4402751;32;20286;-54
2021/07/07 00:25:33;;;;;;;6.50;4.18;;;;;;;;;;4395968;32;20312;-55
2021/07/07 00:27:59;;;;;;;6.68;5.55;;;;;;;;;;4391044;32;20198;-54
2021/07/07 00:30:25;;;;;;;5.87;5.28;;;;;;;;;;4403094;32;20306;-54
2021/07/07 00:32:51;;;;;;;5.18;4.60;;;;;;;;;;4402895;32;20308;-55
2021/07/07 00:35:17;;;;;;;6.45;5.25;;;;;;;;;;4403364;32;20269;-56
2021/07/07 00:37:42;;;;;;;6.43;4.93;;;;;;;;;;4402539;32;20273;-54
2021/07/07 00:40:09;;;;;;;7.28;5.75;;;;;;;;;;4403229;32;20213;-55
2021/07/07 00:42:35;;;;;;;6.10;5.50;;;;;;;;;;4402426;32;20201;-55
2021/07/07 00:45:00;;;;;;;5.97;5.05;;;;;;;;;;4402929;32;20553;-55
2021/07/07 00:47:26;;;;;;;5.50;5.00;;;;;;;;;;4402773;32;20264;-54
2021/07/07 00:49:51;;;;;;;7.32;4.85;;;;;;;;;;4403248;32;20244;-55
2021/07/07 00:52:20;;;;;;;6.57;4.80;;;;;;;;;;4403159;32;20620;-54
2021/07/07 00:54:46;;;;;;;5.85;4.62;;;;;;;;;;4402281;32;20322;-54
2021/07/07 00:57:14;;;;;;;6.97;5.32;;;;;;;;;;4401451;32;20366;-54
2021/07/07 00:59:41;;;;;;;5.30;4.80;;;;;;;;;;4402205;32;20258;-54
2021/07/07 01:02:09;;;;;;;5.35;4.85;;;;;;;;;;4402965;32;20231;-55
2021/07/07 01:04:34;;;;;;;5.22;4.70;;;;;;;;;;4402063;32;20556;-54
2021/07/07 01:07:00;;;;;;;5.78;4.68;;;;;;;;;;4402697;32;20302;-54
2021/07/07 01:09:25;;;;;;;5.55;5.03;;;;;;;;;;4402140;32;20210;-55
2021/07/07 01:11:51;;;;;;;5.68;5.03;;;;;;;;;;4402647;32;20353;-54
2021/07/07 01:14:16;;;;;;;6.10;5.25;;;;;;;;;;4401801;32;20725;-55
2021/07/07 01:16:43;;;;;;;5.12;4.45;;;;;;;;;;4402672;32;20359;-54
2021/07/07 01:19:13;;;;;;;6.05;5.20;;;;;;;;;;4402202;32;20229;-54
2021/07/07 01:21:48;;;;;;;6.95;5.50;;;;;;;;;;4396975;32;20644;-54
2021/07/07 01:24:16;;;;;;;4.60;4.18;;;;;;;;;;4398486;32;20649;-54
2021/07/07 01:26:41;;;;;;;7.45;5.18;;;;;;;;;;4402362;32;20535;-54
2021/07/07 01:29:08;;;;;;;7.10;5.65;;;;;;;;;;4400912;32;20346;-56
2021/07/07 01:31:34;;;;;;;4.70;4.15;;;;;;;;;;4402330;32;20278;-55
2021/07/07 01:34:00;;;;;;;6.18;5.57;;;;;;;;;;4402121;32;20728;-54
2021/07/07 01:36:25;;;;;;;4.82;4.30;;;;;;;;;;4401596;32;20311;-56
2021/07/07 01:38:50;;;;;;;7.72;5.25;;;;;;;;;;4401901;32;20214;-55
2021/07/07 01:41:16;;;;;;;7.03;5.68;;;;;;;;;;4402742;32;20701;-54
2021/07/07 01:43:42;;;;;;;11.20;4.75;;;;;;;;;;4401624;32;20221;-55
2021/07/07 01:46:07;;;;;;;6.82;4.72;;;;;;;;;;4402197;32;20269;-56
2021/07/07 01:48:33;;;;;;;8.60;5.43;;;;;;;;;;4401713;32;20213;-54
2021/07/07 01:50:58;;;;;;;5.82;5.22;;;;;;;;;;4402602;32;20268;-55
2021/07/07 01:53:24;;;;;;;5.57;4.45;;;;;;;;;;4400653;32;20244;-55
2021/07/07 01:55:50;;;;;;;5.15;4.70;;;;;;;;;;4402118;32;20323;-56
2021/07/07 01:58:16;;;;;;;5.43;4.93;;;;;;;;;;4401615;32;20248;-56
2021/07/07 02:00:42;;;;;;;5.57;5.03;;;;;;;;;;4402127;32;20312;-56
2021/07/07 02:03:07;;;;;;;5.32;4.70;;;;;;;;;;4400724;32;20221;-55
2021/07/07 02:05:35;;;;;;;5.82;5.22;;;;;;;;;;4401840;32;20253;-55
2021/07/07 02:08:04;;;;;;;5.87;5.28;;;;;;;;;;4401339;32;20940;-54
2021/07/07 02:10:29;;;;;;;6.40;5.47;;;;;;;;;;4401778;32;20201;-55
2021/07/07 02:12:55;;;;;;;5.68;5.00;;;;;;;;;;4401832;32;20371;-55
2021/07/07 02:15:31;;;;;;;6.70;5.00;;;;;;;;;;4401450;32;20307;-55
2021/07/07 02:17:58;;;;;;;5.65;4.85;;;;;;;;;;4400049;32;20232;-55
2021/07/07 02:20:25;;;;;;;8.02;5.30;;;;;;;;;;4398351;32;20272;-54
2021/07/07 02:22:51;;;;;;;6.65;5.60;;;;;;;;;;4401817;32;20274;-54
2021/07/07 02:25:20;;;;;;;7.35;5.03;;;;;;;;;;4400891;32;20214;-56
2021/07/07 02:27:46;;;;;;;6.87;5.60;;;;;;;;;;4401727;32;20376;-56
2021/07/07 02:30:15;;;;;;;6.50;5.43;;;;;;;;;;4401976;32;20299;-56
2021/07/07 02:32:41;;;;;;;6.95;4.95;;;;;;;;;;4399533;32;20324;-55
2021/07/07 02:35:12;;;;;;;6.32;5.10;;;;;;;;;;4400345;32;20275;-55
2021/07/07 02:37:39;;;;;;;5.45;4.87;;;;;;;;;;4401870;32;20538;-55
2021/07/07 02:40:06;;;;;;;6.10;5.50;;;;;;;;;;4400788;32;20229;-55
2021/07/07 02:42:33;;;;;;;5.70;4.90;;;;;;;;;;4401289;32;20197;-55
2021/07/07 02:44:59;;;;;;;9.15;5.60;;;;;;;;;;4400943;32;20218;-54
2021/07/07 02:47:25;;;;;;;6.05;5.12;;;;;;;;;;4402715;32;20542;-55
2021/07/07 02:49:50;;;;;;;8.23;4.75;;;;;;;;;;4404415;32;20209;-56
2021/07/07 02:52:16;;;;;;;7.20;5.43;;;;;;;;;;4405141;32;20295;-55
2021/07/07 02:54:41;;;;;;;5.80;5.03;;;;;;;;;;4404049;32;20245;-54
2021/07/07 02:57:07;;;;;;;7.72;5.43;;;;;;;;;;4404622;32;20341;-54
2021/07/07 02:59:32;;;;;;;6.07;4.93;;;;;;;;;;4402588;32;20213;-54
2021/07/07 03:01:58;;;;;;;7.43;5.43;;;;;;;;;;4404488;32;20284;-53
2021/07/07 03:04:23;;;;;;;9.10;6.32;;;;;;;;;;4403762;32;20574;-54
2021/07/07 03:06:49;;;;;;;5.12;4.45;;;;;;;;;;4404344;32;20225;-54
2021/07/07 03:09:15;;;;;;;7.53;6.32;;;;;;;;;;4403748;32;20266;-55
2021/07/07 03:11:40;;;;;;;6.97;6.18;;;;;;;;;;4404186;32;20516;-55
2021/07/07 03:14:06;;;;;;;12.98;6.47;;;;;;;;;;4403262;32;20295;-55
2021/07/07 03:16:31;;;;;;;8.95;6.10;;;;;;;;;;4403947;32;20280;-55
2021/07/07 03:18:57;;;;;;;7.87;5.97;;;;;;;;;;4403715;32;20225;-55
2021/07/07 03:21:22;;;;;;;10.80;6.85;;;;;;;;;;4404098;32;20276;-55
2021/07/07 03:23:48;;;;;;;6.97;6.00;;;;;;;;;;4403769;32;20218;-54
2021/07/07 03:26:14;;;;;;;13.77;10.13;;;;;;;;;;4404101;32;20762;-55
2021/07/07 03:28:39;;;;;;;11.43;9.48;;;;;;;;;;4403505;32;20241;-55
2021/07/07 03:31:05;;;;;;;12.60;8.75;;;;;;;;;;4404024;32;20310;-55
2021/07/07 03:33:30;;;;;;;9.50;8.27;;;;;;;;;;4402022;32;20302;-55
2021/07/07 03:35:56;;;;;;;8.15;6.30;;;;;;;;;;4404278;32;20616;-55
2021/07/07 03:38:24;;;;;;;6.78;6.10;;;;;;;;;;4403704;32;20611;-55
2021/07/07 03:40:49;;;;;;;7.87;5.43;;;;;;;;;;4403933;32;20750;-55
2021/07/07 03:43:15;;;;;;;9.23;6.00;;;;;;;;;;4403422;32;20233;-55
2021/07/07 03:45:40;;;;;;;7.70;5.62;;;;;;;;;;4402504;32;20672;-54
2021/07/07 03:48:07;;;;;;;11.12;5.07;;;;;;;;;;4403539;32;20205;-55
2021/07/07 03:50:33;;;;;;;11.10;5.43;;;;;;;;;;4403119;32;20263;-55
2021/07/07 03:52:58;;;;;;;10.60;6.20;;;;;;;;;;4403506;32;20198;-55
2021/07/07 03:55:25;;;;;;;17.08;6.43;;;;;;;;;;4403673;32;20273;-54
2021/07/07 03:57:51;;;;;;;8.35;5.65;;;;;;;;;;4401796;32;20284;-55
2021/07/07 04:00:20;;;;;;;7.95;6.22;;;;;;;;;;4402542;32;20361;-55
2021/07/07 04:02:45;;;;;;;9.13;6.18;;;;;;;;;;4403022;32;20380;-56
2021/07/07 04:05:11;;;;;;;7.30;6.15;;;;;;;;;;4403288;32;20737;-55
2021/07/07 04:07:37;;;;;;;6.70;6.07;;;;;;;;;;4403404;32;20274;-55
2021/07/07 04:10:07;;;;;;;8.40;5.78;;;;;;;;;;4402252;32;20228;-55
2021/07/07 04:12:36;;;;;;;10.52;5.78;;;;;;;;;;4403192;32;20233;-54
2021/07/07 04:15:04;;;;;;;7.12;5.65;;;;;;;;;;4402573;32;20554;-54
2021/07/07 04:17:29;;;;;;;11.57;5.87;;;;;;;;;;4403632;32;20201;-55
2021/07/07 04:19:55;;;;;;;9.15;6.00;;;;;;;;;;4403492;32;20228;-55
2021/07/07 04:22:20;;;;;;;9.27;6.30;;;;;;;;;;4403725;32;20349;-55
2021/07/07 04:24:45;;;;;;;7.53;6.07;;;;;;;;;;4402392;32;20621;-54
2021/07/07 04:27:11;;;;;;;10.60;7.03;;;;;;;;;;4403518;32;20280;-55
2021/07/07 04:29:36;;;;;;;6.82;6.10;;;;;;;;;;4402639;32;20205;-55
2021/07/07 04:32:02;;;;;;;8.90;6.37;;;;;;;;;;4403339;32;20273;-55
2021/07/07 04:34:27;;;;;;;10.48;6.82;;;;;;;;;;4402626;32;20283;-55
2021/07/07 04:36:53;;;;;;;7.15;5.85;;;;;;;;;;4403580;32;20269;-55
2021/07/07 04:39:19;;;;;;;8.63;5.90;;;;;;;;;;4402517;32;20216;-55
2021/07/07 04:41:44;;;;;;;9.65;6.82;;;;;;;;;;4402995;32;20289;-56
2021/07/07 04:44:09;;;;;;;9.95;6.72;;;;;;;;;;4402732;32;20346;-57
2021/07/07 04:46:35;;;;;;;8.70;6.75;;;;;;;;;;4402896;32;20661;-55
2021/07/07 04:49:00;;;;;;;16.48;6.43;;;;;;;;;;4402715;32;20322;-54
2021/07/07 04:51:26;;;;;;;10.70;7.47;;;;;;;;;;4403117;32;20264;-55
2021/07/07 04:53:51;;;;;;;7.18;6.03;;;;;;;;;;4402623;32;20716;-54
2021/07/07 04:56:17;;;;;;;7.57;6.60;;;;;;;;;;4402646;32;20329;-56
2021/07/07 04:58:43;;;;;;;7.55;5.43;;;;;;;;;;4394997;32;20233;-55
2021/07/07 05:01:09;;;;;;;7.57;5.22;;;;;;;;;;4402951;32;20272;-55
2021/07/07 05:03:35;;;;;;;7.10;5.43;;;;;;;;;;4402189;32;20492;-54
2021/07/07 05:06:00;;;;;;;6.47;5.30;;;;;;;;;;4402480;32;20300;-55
2021/07/07 05:08:26;;;;;;;9.30;6.05;;;;;;;;;;4402321;32;20212;-55
2021/07/07 05:10:52;;;;;;;8.10;6.37;;;;;;;;;;4395032;32;20300;-57
2021/07/07 05:13:18;;;;;;;7.00;5.45;;;;;;;;;;4392406;32;20305;-54
2021/07/07 05:15:45;;;;;;;7.10;5.65;;;;;;;;;;4401803;32;20673;-54
2021/07/07 05:18:11;;;;;;;9.18;5.18;;;;;;;;;;4401964;32;20695;-54
2021/07/07 05:20:36;;;;;;;7.53;5.57;;;;;;;;;;4402372;32;20293;-54
2021/07/07 05:23:06;;;;;;;8.23;5.82;;;;;;;;;;4402248;32;20209;-54
2021/07/07 05:25:36;;;;;;;9.70;6.18;;;;;;;;;;4401103;32;20255;-55
2021/07/07 05:28:03;;;;;;;6.55;5.43;;;;;;;;;;4402384;32;20363;-55
2021/07/07 05:30:29;;;;;;;6.68;5.47;;;;;;;;;;4402489;32;20644;-55
2021/07/07 05:32:55;;;;;;;10.77;6.35;;;;;;;;;;4401836;32;20194;-55
2021/07/07 05:35:21;;;;;;;6.43;5.65;;;;;;;;;;4401065;32;20264;-56
2021/07/07 05:37:47;;;;;;;7.90;6.55;;;;;;;;;;4402379;32;20284;-55
2021/07/07 05:40:14;;;;;;;11.52;6.30;;;;;;;;;;4402270;32;20345;-55
2021/07/07 05:42:39;;;;;;;11.38;6.22;;;;;;;;;;4402094;32;20206;-55
2021/07/07 05:45:05;;;;;;;8.20;5.95;;;;;;;;;;4402725;32;20240;-54
2021/07/07 05:47:31;;;;;;;12.00;6.10;;;;;;;;;;4401331;32;20276;-54
2021/07/07 05:49:57;;;;;;;8.95;6.03;;;;;;;;;;4402414;32;20244;-54
2021/07/07 05:52:26;;;;;;;13.62;5.85;;;;;;;;;;4401911;32;20363;-54
2021/07/07 05:54:53;;;;;;;8.10;6.85;;;;;;;;;;4401918;32;20645;-55
2021/07/07 05:57:19;;;;;;;6.80;5.72;;;;;;;;;;4400831;32;20300;-56
2021/07/07 05:59:44;;;;;;;7.12;5.75;;;;;;;;;;4401074;32;20249;-55
2021/07/07 06:02:10;;;;;;;10.57;5.72;;;;;;;;;;4401870;32;20296;-55
2021/07/07 06:04:37;;;;;;;12.50;5.90;;;;;;;;;;4401277;32;20669;-55
2021/07/07 06:07:03;;;;;;;8.05;6.25;;;;;;;;;;4395447;32;20233;-55
2021/07/07 06:09:28;;;;;;;7.57;6.05;;;;;;;;;;4400655;32;20295;-55
2021/07/07 06:11:55;;;;;;;7.53;5.70;;;;;;;;;;4402881;32;20276;-55
2021/07/07 06:14:21;;;;;;;10.02;6.62;;;;;;;;;;4398951;32;20276;-55
2021/07/07 06:16:48;;;;;;;8.95;5.82;;;;;;;;;;4402101;32;20333;-55
2021/07/07 06:19:13;;;;;;;7.55;6.05;;;;;;;;;;4401510;32;20226;-55
2021/07/07 06:21:39;;;;;;;8.98;6.95;;;;;;;;;;4402162;32;20268;-55
2021/07/07 06:24:04;;;;;;;8.18;6.18;;;;;;;;;;4404548;32;20217;-55
2021/07/07 06:26:31;;;;;;;7.87;6.03;;;;;;;;;;4404836;32;20308;-55
2021/07/07 06:28:57;;;;;;;8.32;6.07;;;;;;;;;;4404621;32;20233;-55
2021/07/07 06:31:23;;;;;;;8.02;6.40;;;;;;;;;;4404976;32;20341;-56
2021/07/07 06:33:49;;;;;;;6.57;5.82;;;;;;;;;;4404538;32;21266;-55
2021/07/07 06:36:14;;;;;;;8.57;5.72;;;;;;;;;;4405017;32;20602;-55
2021/07/07 06:38:40;;;;;;;9.30;6.07;;;;;;;;;;4403842;32;20420;-54
2021/07/07 06:41:05;;;;;;;7.85;6.25;;;;;;;;;;4403701;32;20736;-57
2021/07/07 06:43:31;;;;;;;8.20;7.28;;;;;;;;;;4390141;32;20241;-55
2021/07/07 06:45:56;;;;;;;13.73;7.57;;;;;;;;;;4403885;32;20319;-55
2021/07/07 06:48:22;;;;;;;9.43;5.95;;;;;;;;;;4404073;32;20244;-55
2021/07/07 06:50:47;;;;;;;8.00;6.68;;;;;;;;;;4404352;32;20264;-55
2021/07/07 06:53:14;;;;;;;12.52;6.18;;;;;;;;;;4404681;32;20225;-55
2021/07/07 06:55:40;;;;;;;8.30;6.45;;;;;;;;;;4404632;32;20303;-55
2021/07/07 06:58:10;;;;;;;7.72;6.00;;;;;;;;;;4404430;32;20729;-55
2021/07/07 07:00:36;;;;;;;7.05;5.70;;;;;;;;;;4404408;32;20244;-55
2021/07/07 07:03:01;;;;;;;12.93;6.25;;;;;;;;;;4402634;32;20375;-55
2021/07/07 07:05:27;;;;;;;6.65;5.85;;;;;;;;;;4404602;32;20515;-55
2021/07/07 07:07:52;;;;;;;16.77;6.20;;;;;;;;;;4404086;32;20203;-55
2021/07/07 07:10:18;;;;;;;6.47;5.57;;;;;;;;;;4404318;32;20265;-55
2021/07/07 07:12:43;;;;;;;7.78;5.85;;;;;;;;;;4404076;32;20337;-55
2021/07/07 07:15:11;;;;;;;7.60;5.90;;;;;;;;;;4404133;32;20301;-55
2021/07/07 07:17:37;;;;;;;7.18;5.43;;;;;;;;;;4404082;32;20532;-55
2021/07/07 07:20:08;;;;;;;7.75;6.30;;;;;;;;;;4403676;32;20229;-55
2021/07/07 07:22:35;;;;;;;6.90;5.72;;;;;;;;;;4404220;32;20255;-55
2021/07/07 07:25:01;;;;;;;7.20;6.00;;;;;;;;;;4404106;32;20311;-55
2021/07/07 07:27:26;;;;;;;6.37;5.78;;;;;;;;;;4402343;32;20293;-55
2021/07/07 07:29:51;;;;;;;8.73;6.43;;;;;;;;;;4404432;32;20229;-56
2021/07/07 07:32:17;;;;;;;8.23;5.25;;;;;;;;;;4392857;32;20292;-55
2021/07/07 07:34:42;;;;;;;7.72;5.93;;;;;;;;;;4387644;32;20233;-56
2021/07/07 07:37:13;;;;;;;12.77;6.47;;;;;;;;;;4388234;32;20325;-54
2021/07/07 07:39:47;;;;;;;11.30;6.47;;;;;;;;;;4389118;32;20658;-55
2021/07/07 07:42:15;;;;;;;5.85;4.93;;;;;;;;;;4389316;32;20262;-55
2021/07/07 07:44:41;;;;;;;6.20;4.78;;;;;;;;;;4396286;32;20320;-55
2021/07/07 07:47:07;;;;;;;6.00;4.85;;;;;;;;;;4404419;32;20281;-57
2021/07/07 07:49:32;;;;;;;9.20;5.62;;;;;;;;;;4404036;32;20213;-55
2021/07/07 07:51:58;;;;;;;8.13;5.22;;;;;;;;;;4404250;32;20306;-55
2021/07/07 07:54:24;;;;;;;5.62;5.07;;;;;;;;;;4404338;32;20233;-55
2021/07/07 07:56:50;;;;;;;10.57;6.22;;;;;;;;;;4401158;32;20297;-56
2021/07/07 07:59:16;;;;;;;8.20;5.07;;;;;;;;;;4394118;32;20234;-55
2021/07/07 08:01:41;;;;;;;6.65;5.47;;;;;;;;;;4403889;32;20326;-56
2021/07/07 08:04:07;;;;;;;8.93;5.03;;;;;;;;;;4404559;32;20244;-55
2021/07/07 08:06:34;;;;;;;6.87;4.97;;;;;;;;;;4403862;32;20218;-56
2021/07/07 08:09:01;;;;;;;10.20;5.35;;;;;;;;;;4401831;32;20347;-56
2021/07/07 08:11:27;;;;;;;7.40;5.37;;;;;;;;;;4403858;32;20218;-56
2021/07/07 08:13:53;;;;;;;5.57;4.60;;;;;;;;;;4403364;32;20283;-56
2021/07/07 08:16:20;;;;;;;7.07;4.78;;;;;;;;;;4403468;32;20305;-57
2021/07/07 08:18:45;;;;;;;7.12;4.68;;;;;;;;;;4394582;32;20271;-56
2021/07/07 08:21:11;;;;;;;11.68;4.80;;;;;;;;;;4398885;32;20273;-55
2021/07/07 08:23:36;;;;;;;6.65;5.07;;;;;;;;;;4403192;32;20276;-55
2021/07/07 08:26:01;;;;;;;6.78;4.93;;;;;;;;;;4403683;32;20323;-55
2021/07/07 08:28:27;;;;;;;4.87;4.20;;;;;;;;;;4403577;32;20230;-54
2021/07/07 08:30:52;;;;;;;9.38;4.75;;;;;;;;;;4403090;32;20337;-55
2021/07/07 08:33:18;;;;;;;5.18;4.68;;;;;;;;;;4403284;32;20257;-55
2021/07/07 08:35:44;;;;;;;8.60;4.90;;;;;;;;;;4403552;32;20547;-56
2021/07/07 08:38:10;;;;;;;4.93;4.10;;;;;;;;;;4403557;32;20487;-57
2021/07/07 08:40:36;;;;;;;6.70;4.28;;;;;;;;;;4403089;32;20569;-55
2021/07/07 08:43:02;;;;;;;4.05;3.53;;;;;;;;;;4396762;32;20361;-54
2021/07/07 08:45:28;;;;;;;4.78;3.42;;;;;;;;;;4393436;32;20317;-55
2021/07/07 08:47:54;;;;;;;5.57;3.95;;;;;;;;;;4388913;32;20240;-54
2021/07/07 08:50:22;;;;;;;4.10;3.37;;;;;;;;;;4402198;32;20312;-55
2021/07/07 08:52:49;;;;;;;4.85;3.85;;;;;;;;;;4402253;32;20239;-55
2021/07/07 08:55:16;;;;;;;8.65;3.95;;;;;;;;;;4403403;32;20345;-55
2021/07/07 08:57:43;;;;;;;4.80;3.70;;;;;;;;;;4401045;32;20438;-55
2021/07/07 09:00:14;;;;;;;6.75;4.50;;;;;;;;;;4390344;32;20416;-55
2021/07/07 09:02:51;;;;;;;5.68;3.35;;;;;;;;;;4388899;32;20209;-54
2021/07/07 09:05:17;;;;;;;4.80;4.18;;;;;;;;;;4387146;32;20328;-56
2021/07/07 09:07:43;;;;;;;4.07;3.47;;;;;;;;;;4374111;32;20335;-56
2021/07/07 09:10:09;;;;;;;5.45;3.60;;;;;;;;;;4387018;32;20268;-55
2021/07/07 09:12:36;;;;;;;5.55;4.05;;;;;;;;;;4387675;32;20375;-55
2021/07/07 09:15:09;;;;;;;4.03;3.62;;;;;;;;;;4397443;32;20225;-56
2021/07/07 09:17:49;;;;;;;4.22;3.33;;;;;;;;;;4403155;32;20248;-55
2021/07/07 09:20:20;;;;;;;3.65;3.35;;;;;;;;;;4403269;32;20250;-56
2021/07/07 09:22:48;;;;;;;4.00;3.60;;;;;;;;;;4403080;32;20294;-55
2021/07/07 09:25:19;;;;;;;6.07;3.55;;;;;;;;;;4402533;32;20260;-55
2021/07/07 09:27:46;;;;;;;5.47;3.87;;;;;;;;;;4402848;32;20267;-55
2021/07/07 09:30:13;;;;;;;4.82;3.62;;;;;;;;;;4399870;32;20325;-55
2021/07/07 09:32:47;;;;;;;5.97;3.40;;;;;;;;;;4402213;32;20220;-55
2021/07/07 09:35:17;;;;;;;4.30;3.30;;;;;;;;;;4403065;32;20689;-56
2021/07/07 09:37:56;;;;;;;3.92;3.30;;;;;;;;;;4401209;32;20237;-55
2021/07/07 09:40:23;;;;;;;3.60;3.17;;;;;;;;;;4402268;32;20201;-56
2021/07/07 09:42:50;;;;;;;8.93;3.50;;;;;;;;;;4402373;32;20220;-56
2021/07/07 09:45:18;;;;;;;4.97;3.60;;;;;;;;;;4402950;32;20281;-56
2021/07/07 09:47:45;;;;;;;5.80;3.50;;;;;;;;;;4402706;32;20218;-56
2021/07/07 09:50:13;;;;;;;4.55;3.67;;;;;;;;;;4403328;32;20381;-56
2021/07/07 09:52:39;;;;;;;5.65;3.85;;;;;;;;;;4390893;32;20253;-56
2021/07/07 09:55:09;;;;;;;3.90;3.53;;;;;;;;;;4387514;32;20562;-55
2021/07/07 09:57:45;;;;;;;4.47;3.45;;;;;;;;;;4400376;32;20235;-56
2021/07/07 10:00:22;;;;;;;3.53;3.00;;;;;;;;;;4405669;32;20244;-56
2021/07/07 10:02:49;;;;;;;5.25;3.95;;;;;;;;;;4405467;32;20225;-56
2021/07/07 10:05:17;;;;;;;4.32;3.55;;;;;;;;;;4405465;32;20733;-56
2021/07/07 10:07:44;;;;;;;5.18;3.42;;;;;;;;;;4402440;32;20346;-56
2021/07/07 10:10:21;;;;;;;5.07;3.83;;;;;;;;;;4406304;32;20279;-56
2021/07/07 10:12:47;;;;;;;4.62;3.78;;;;;;;;;;4405852;32;20235;-56
2021/07/07 10:15:14;;;;;;;8.32;3.70;;;;;;;;;;4404625;32;20313;-56
2021/07/07 10:17:41;;;;;;;4.22;3.75;;;;;;;;;;4404920;32;20257;-56
2021/07/07 10:20:10;;;;;;;4.53;3.55;;;;;;;;;;4406126;32;20229;-56
2021/07/07 10:22:37;;;;;;;4.45;3.05;;;;;;;;;;4405695;32;20616;-55
2021/07/07 10:25:07;;;;;;;5.37;3.50;;;;;;;;;;4406609;32;20253;-56
2021/07/07 10:27:34;;;;;;;4.35;3.55;;;;;;;;;;4406032;32;20201;-56
2021/07/07 10:30:00;;;;;;;3.60;2.95;;;;;;;;;;4405988;32;20228;-56
2021/07/07 10:32:29;;;;;;;9.00;2.65;;;;;;;;;;4402276;32;20364;-56
2021/07/07 10:35:01;;;;;;;6.50;2.95;;;;;;;;;;4404194;32;20257;-56
2021/07/07 10:37:27;;;;;;;3.40;3.10;;;;;;;;;;4405173;32;20284;-57
2021/07/07 10:40:12;;;;;;;5.53;3.33;;;;;;;;;;4405065;32;20701;-56
2021/07/07 10:42:42;;;;;;;6.70;3.12;;;;;;;;;;4405087;32;20569;-56
2021/07/07 10:45:07;;;;;;;3.58;3.15;;;;;;;;;;4405625;32;20226;-57
2021/07/07 10:47:34;;;;;;;3.35;2.80;;;;;;;;;;4403928;32;20324;-56
2021/07/07 10:50:01;;;;;;;5.45;2.90;;;;;;;;;;4404101;32;21980;-56
2021/07/07 10:52:43;;;;;;;5.50;3.60;;;;;;;;;;4404942;32;20308;-56
2021/07/07 10:55:14;;;;;;;3.62;2.55;;;;;;;;;;4404561;32;20291;-55
2021/07/07 10:57:40;;;;;;;3.87;2.30;;;;;;;;;;4404513;32;20225;-56
2021/07/07 11:00:35;;;;;;;3.60;3.17;;;;;;;;;;4404950;32;20252;-56
2021/07/07 11:03:36;;;;;;;3.95;2.83;;;;;;;;;;4404953;32;20660;-56
2021/07/07 11:06:23;;;;;;;3.75;2.75;;;;;;;;;;4402840;32;20265;-57
2021/07/07 11:08:50;;;;;;;4.10;3.15;;;;;;;;;;4404030;32;20217;-57
2021/07/07 11:11:23;;;;;;;3.30;2.67;;;;;;;;;;4405835;32;20197;-57
2021/07/07 11:13:51;;;;;;;3.47;3.10;;;;;;;;;;4390972;32;20707;-56
2021/07/07 11:16:24;;;;;;;5.65;3.10;;;;;;;;;;4405479;32;20236;-57
2021/07/07 11:18:51;;;;;;;3.70;2.85;;;;;;;;;;4403591;32;20316;-57
2021/07/07 11:21:17;;;;;;;3.95;3.00;;;;;;;;;;4405343;32;20241;-56
2021/07/07 11:23:44;;;;;;;5.00;2.65;;;;;;;;;;4403366;32;20573;-57
2021/07/07 11:26:11;;;;;;;4.15;3.22;;;;;;;;;;4405072;32;20248;-57
2021/07/07 11:28:37;;;;;;;8.90;2.62;;;;;;;;;;4403482;32;20237;-57
2021/07/07 11:31:03;;;;;;;4.22;3.15;;;;;;;;;;4400771;32;20358;-58
2021/07/07 11:33:29;;;;;;;3.60;2.90;;;;;;;;;;4404680;32;20225;-57
2021/07/07 11:35:55;;;;;;;3.10;2.45;;;;;;;;;;4404725;32;20355;-57
2021/07/07 11:38:26;;;;;;;3.03;2.72;;;;;;;;;;4399522;32;20296;-56
2021/07/07 11:40:53;;;;;;;3.03;2.72;;;;;;;;;;4404490;32;20194;-57
2021/07/07 11:43:20;;;;;;;3.33;3.00;;;;;;;;;;4404201;32;20332;-56
2021/07/07 11:45:53;;;;;;;8.98;2.72;;;;;;;;;;4404526;32;20273;-58
2021/07/07 11:48:30;;;;;;;3.95;2.72;;;;;;;;;;4403952;32;20221;-58
2021/07/07 11:50:59;;;;;;;3.35;2.10;;;;;;;;;;4405237;32;20231;-57
2021/07/07 11:53:38;;;;;;;2.87;2.65;;;;;;;;;;4403516;32;20274;-57
2021/07/07 11:56:09;;;;;;;3.30;2.62;;;;;;;;;;4404730;32;20286;-56
2021/07/07 11:58:51;;;;;;;4.18;2.87;;;;;;;;;;4402990;32;20248;-57
2021/07/07 12:01:19;;;;;;;5.78;4.10;;;;;;;;;;4402746;32;20235;-58
2021/07/07 12:03:56;;;;;;;5.18;3.03;;;;;;;;;;4403574;32;20304;-57
2021/07/07 12:06:33;;;;;;;4.20;3.03;;;;;;;;;;4404086;32;20269;-56
2021/07/07 12:08:59;;;;;;;3.33;2.65;;;;;;;;;;4404013;32;20244;-56
2021/07/07 12:11:25;;;;;;;4.53;2.65;;;;;;;;;;4404344;32;20288;-57
2021/07/07 12:13:52;;;;;;;3.65;2.35;;;;;;;;;;4403518;32;20728;-57
2021/07/07 12:16:37;;;;;;;3.50;2.85;;;;;;;;;;4404221;32;20328;-57
2021/07/07 12:19:08;;;;;;;3.72;2.62;;;;;;;;;;4404129;32;20341;-56
2021/07/07 12:21:41;;;;;;;3.33;2.53;;;;;;;;;;4403863;32;20316;-58
2021/07/07 12:24:09;;;;;;;4.80;2.80;;;;;;;;;;4403999;32;20228;-57
2021/07/07 12:26:38;;;;;;;3.30;2.55;;;;;;;;;;4403873;32;20229;-57
2021/07/07 12:29:05;;;;;;;3.62;2.83;;;;;;;;;;4404730;32;20226;-56
2021/07/07 12:31:41;;;;;;;3.17;2.87;;;;;;;;;;4398566;32;20368;-56
2021/07/07 12:34:08;;;;;;;2.47;2.17;;;;;;;;;;4404309;32;20280;-57
2021/07/07 12:36:36;;;;;;;5.35;2.92;;;;;;;;;;4403933;32;20228;-57
2021/07/07 12:39:10;;;;;;;3.10;2.60;;;;;;;;;;4403610;32;20657;-57
2021/07/07 12:41:42;;;;;;;3.45;2.83;;;;;;;;;;4403804;32;20220;-57
2021/07/07 12:46:54;;;;;;;6.00;3.80;;;;;;;;;;4403353;32;20206;-57
2021/07/07 12:49:36;;;;;;;4.07;2.60;;;;;;;;;;4399542;32;20670;-56
2021/07/07 12:52:17;;;;;;;5.32;3.15;;;;;;;;;;4403704;32;20197;-58
2021/07/07 12:54:44;;;;;;;3.17;2.10;;;;;;;;;;4403282;32;20221;-56
2021/07/07 12:57:09;;;;;;;3.62;2.92;;;;;;;;;;4402895;32;20359;-56
2021/07/07 12:59:35;;;;;;;3.67;2.60;;;;;;;;;;4402931;32;20707;-57
2021/07/07 13:02:06;;;;;;;5.28;2.62;;;;;;;;;;4391388;32;20316;-56
2021/07/07 13:04:33;;;;;;;4.78;2.45;;;;;;;;;;4390300;32;20705;-57
2021/07/07 13:07:10;;;;;;;4.05;2.65;;;;;;;;;;4387210;32;20321;-56
2021/07/07 13:09:37;;;;;;;3.28;2.97;;;;;;;;;;4387909;32;20257;-57
2021/07/07 13:12:07;;;;;;;8.88;2.72;;;;;;;;;;4388339;32;20274;-56
2021/07/07 13:14:35;;;;;;;3.03;2.35;;;;;;;;;;4384927;32;20225;-56
2021/07/07 13:17:01;;;;;;;3.45;2.78;;;;;;;;;;4387730;32;20831;-56
2021/07/07 13:19:34;;;;;;;3.90;2.80;;;;;;;;;;4387644;32;20256;-57
2021/07/07 13:22:02;;;;;;;4.82;2.45;;;;;;;;;;4386476;32;20224;-57
2021/07/07 13:24:40;;;;;;;3.65;3.00;;;;;;;;;;4393615;32;20237;-57
2021/07/07 13:27:15;;;;;;;3.62;2.47;;;;;;;;;;4401883;32;20635;-57
2021/07/07 13:29:42;;;;;;;3.95;3.30;;;;;;;;;;4398350;32;20759;-56
2021/07/07 13:32:09;;;;;;;5.05;2.92;;;;;;;;;;4400561;32;20358;-57
2021/07/07 13:34:45;;;;;;;4.15;3.17;;;;;;;;;;4401267;32;20237;-57
2021/07/07 13:37:21;;;;;;;3.55;2.80;;;;;;;;;;4403836;32;20292;-57
2021/07/07 13:39:50;;;;;;;3.08;2.55;;;;;;;;;;4403789;32;20245;-57
2021/07/07 13:42:16;;;;;;;4.25;3.08;;;;;;;;;;4402537;32;20229;-57
2021/07/07 13:44:43;;;;;;;3.45;2.42;;;;;;;;;;4403363;32;20221;-56
2021/07/07 13:47:09;;;;;;;3.20;2.85;;;;;;;;;;4403506;32;20654;-56
2021/07/07 13:49:35;;;;;;;2.85;2.50;;;;;;;;;;4402693;32;20229;-56
2021/07/07 13:52:01;;;;;;;4.53;3.25;;;;;;;;;;4403107;32;20617;-58
2021/07/07 13:54:26;;;;;;;3.97;2.55;;;;;;;;;;4403318;32;20248;-56
2021/07/07 13:56:52;;;;;;;3.83;3.00;;;;;;;;;;4403213;32;20352;-57
2021/07/07 13:59:17;;;;;;;4.45;3.30;;;;;;;;;;4403055;32;20283;-57
2021/07/07 14:01:43;;;;;;;4.07;2.78;;;;;;;;;;4402877;32;20898;-57
2021/07/07 14:04:09;;;;;;;4.45;3.08;;;;;;;;;;4402833;32;20300;-57
2021/07/07 14:06:36;;;;;;;2.90;2.45;;;;;;;;;;4402826;32;20346;-56
2021/07/07 14:09:02;;;;;;;5.15;3.20;;;;;;;;;;4402844;32;20336;-58
2021/07/07 14:11:28;;;;;;;5.72;3.65;;;;;;;;;;4403220;32;20210;-57
2021/07/07 14:13:53;;;;;;;3.22;2.92;;;;;;;;;;4402673;32;20649;-57
2021/07/07 14:16:19;;;;;;;6.75;4.65;;;;;;;;;;4402868;32;20323;-56
2021/07/07 14:18:44;;;;;;;4.40;3.55;;;;;;;;;;4401030;32;20340;-57
2021/07/07 14:21:09;;;;;;;3.72;2.95;;;;;;;;;;4399875;32;20316;-57
2021/07/07 14:23:35;;;;;;;7.28;3.62;;;;;;;;;;4403032;32;20237;-57
2021/07/07 14:26:00;;;;;;;4.53;3.53;;;;;;;;;;4402520;32;20305;-57
2021/07/07 14:28:26;;;;;;;5.18;4.03;;;;;;;;;;4402839;32;20221;-58
2021/07/07 14:30:51;;;;;;;5.00;3.97;;;;;;;;;;4400634;32;20360;-56
2021/07/07 14:33:17;;;;;;;4.60;3.10;;;;;;;;;;4387093;32;20248;-56
2021/07/07 14:35:42;;;;;;;5.93;3.78;;;;;;;;;;4395298;32;20645;-57
2021/07/07 14:38:08;;;;;;;4.22;3.83;;;;;;;;;;4402741;32;20222;-57
2021/07/07 14:40:34;;;;;;;4.37;3.30;;;;;;;;;;4389292;32;20357;-57
2021/07/07 14:42:59;;;;;;;5.93;4.10;;;;;;;;;;4403264;32;20213;-57
2021/07/07 14:45:25;;;;;;;4.40;3.37;;;;;;;;;;4405878;32;20280;-56
2021/07/07 14:47:50;;;;;;;4.62;3.22;;;;;;;;;;4406088;32;20247;-57